Time;durP1;ratioP1;P1;durP2;ratioP2;P2;SDS_P1;SDS_P2;PMS_P1;PMS_P2;Temp;Humidity;BMP_temperature;BMP_pressure;BME280_temperature;BME280_humidity;BME280_pressure;Samples;Min_cycle;Max_cycle;Signal;HPM_P1;HPM_P2
2022/07/24 00:02:00;;;;;;;6.22;1.92;;;24.60;55.10;;;;;;5007978;28;20029;-56
2022/07/24 00:04:26;;;;;;;4.85;2.00;;;24.60;55.20;;;;;;5008930;28;20478;-55
2022/07/24 00:06:51;;;;;;;4.30;1.85;;;24.60;55.20;;;;;;5006196;28;20489;-55
2022/07/24 00:09:17;;;;;;;5.18;2.20;;;24.60;55.20;;;;;;5006220;28;20114;-54
2022/07/24 00:11:43;;;;;;;5.25;1.95;;;24.60;55.20;;;;;;5007733;28;20037;-55
2022/07/24 00:14:08;;;;;;;5.00;1.95;;;24.60;55.20;;;;;;5002758;28;20025;-55
2022/07/24 00:16:34;;;;;;;5.57;2.00;;;24.60;55.20;;;;;;5006840;28;20093;-55
2022/07/24 00:19:00;;;;;;;3.85;1.75;;;24.60;55.20;;;;;;5005795;28;20069;-55
2022/07/24 00:21:26;;;;;;;5.85;2.10;;;24.50;55.10;;;;;;5008589;28;20113;-54
2022/07/24 00:23:51;;;;;;;4.20;1.85;;;24.50;55.10;;;;;;5005836;28;21596;-55
2022/07/24 00:26:17;;;;;;;5.93;1.95;;;24.50;55.10;;;;;;5009159;28;20029;-55
2022/07/24 00:28:42;;;;;;;4.35;1.95;;;24.50;55.20;;;;;;5007386;28;20041;-55
2022/07/24 00:31:08;;;;;;;4.72;1.70;;;24.50;55.30;;;;;;5005951;28;20503;-54
2022/07/24 00:33:34;;;;;;;3.78;1.83;;;24.50;55.20;;;;;;5006946;28;20015;-55
2022/07/24 00:35:59;;;;;;;4.20;1.75;;;24.50;55.20;;;;;;5007055;28;20129;-56
2022/07/24 00:38:25;;;;;;;4.50;2.00;;;24.50;56.30;;;;;;5007875;28;20037;-55
2022/07/24 00:40:51;;;;;;;5.15;1.98;;;24.40;55.20;;;;;;5004919;28;20104;-55
2022/07/24 00:43:17;;;;;;;3.70;1.75;;;24.50;55.30;;;;;;5006118;28;20023;-54
2022/07/24 00:45:43;;;;;;;4.22;1.90;;;24.50;55.30;;;;;;5003912;28;20402;-55
2022/07/24 00:48:09;;;;;;;5.03;1.90;;;24.50;55.30;;;;;;5006221;28;20042;-54
2022/07/24 00:50:36;;;;;;;4.72;1.98;;;24.50;55.30;;;;;;5007358;28;20080;-55
2022/07/24 00:53:02;;;;;;;5.78;1.90;;;24.40;55.20;;;;;;5020578;28;20026;-55
2022/07/24 00:55:28;;;;;;;4.25;1.85;;;24.40;55.20;;;;;;5005554;28;20053;-54
2022/07/24 00:57:53;;;;;;;4.88;1.85;;;24.40;55.30;;;;;;5004149;28;20022;-53
2022/07/24 01:00:20;;;;;;;3.15;1.80;;;24.40;55.30;;;;;;5008152;28;20470;-55
2022/07/24 01:02:45;;;;;;;4.13;1.90;;;24.40;55.20;;;;;;5006914;28;20072;-55
2022/07/24 01:05:11;;;;;;;3.72;1.85;;;24.40;55.30;;;;;;5006919;28;20105;-55
2022/07/24 01:07:37;;;;;;;4.55;1.95;;;24.40;55.30;;;;;;5005787;28;20104;-54
2022/07/24 01:10:03;;;;;;;4.78;1.90;;;24.40;55.30;;;;;;5004231;28;20161;-55
2022/07/24 01:12:30;;;;;;;4.43;1.88;;;24.40;55.30;;;;;;5005276;28;20014;-55
2022/07/24 01:14:56;;;;;;;3.50;1.88;;;24.40;55.30;;;;;;5002709;28;20065;-54
2022/07/24 01:17:22;;;;;;;4.63;1.88;;;24.40;55.30;;;;;;5007355;28;20049;-55
2022/07/24 01:19:47;;;;;;;4.18;1.90;;;24.40;55.30;;;;;;5005342;28;20038;-55
2022/07/24 01:22:13;;;;;;;3.58;1.67;;;24.30;55.20;;;;;;5008362;28;20034;-54
2022/07/24 01:24:39;;;;;;;4.10;1.90;;;24.30;55.20;;;;;;5006014;28;20050;-54
2022/07/24 01:27:04;;;;;;;4.43;1.70;;;24.30;55.30;;;;;;5007653;28;20053;-55
2022/07/24 01:29:30;;;;;;;6.28;1.92;;;24.30;55.30;;;;;;5021909;28;20018;-55
2022/07/24 01:31:55;;;;;;;3.95;1.60;;;24.30;55.30;;;;;;5005832;28;20104;-55
2022/07/24 01:34:21;;;;;;;4.20;1.90;;;24.30;55.30;;;;;;5005330;28;20034;-55
2022/07/24 01:36:47;;;;;;;3.47;1.65;;;24.30;55.30;;;;;;5005920;28;20038;-55
2022/07/24 01:39:12;;;;;;;5.50;1.80;;;24.30;55.30;;;;;;5007728;28;20025;-55
2022/07/24 01:41:38;;;;;;;3.90;1.60;;;24.30;55.30;;;;;;5006132;28;20044;-54
2022/07/24 01:44:04;;;;;;;2.78;1.60;;;24.30;55.30;;;;;;5005625;28;20021;-55
2022/07/24 01:46:29;;;;;;;4.30;1.60;;;24.30;55.30;;;;;;5005104;28;20109;-55
2022/07/24 01:48:55;;;;;;;4.13;1.70;;;24.30;55.30;;;;;;5004487;28;20029;-55
2022/07/24 01:51:21;;;;;;;4.63;1.80;;;24.30;55.30;;;;;;5005991;28;20026;-55
2022/07/24 01:53:46;;;;;;;3.88;1.70;;;24.20;55.30;;;;;;5006299;28;20042;-55
2022/07/24 01:56:12;;;;;;;3.67;1.90;;;24.30;55.40;;;;;;5005519;28;20562;-54
2022/07/24 01:58:39;;;;;;;3.78;1.63;;;24.30;55.40;;;;;;5005285;28;20076;-55
2022/07/24 02:01:05;;;;;;;4.68;1.83;;;24.30;55.40;;;;;;5007071;28;20509;-54
2022/07/24 02:03:31;;;;;;;3.42;1.77;;;24.20;55.30;;;;;;5004360;28;20036;-55
2022/07/24 02:05:56;;;;;;;2.45;1.40;;;24.20;55.30;;;;;;5005557;28;20029;-55
2022/07/24 02:08:22;;;;;;;3.08;1.42;;;24.20;55.40;;;;;;5001956;28;20022;-55
2022/07/24 02:10:48;;;;;;;3.40;1.50;;;24.20;55.40;;;;;;5003810;28;20034;-55
2022/07/24 02:13:13;;;;;;;3.60;1.60;;;24.20;55.40;;;;;;5001818;28;20028;-55
2022/07/24 02:15:39;;;;;;;3.95;1.70;;;24.20;55.40;;;;;;5005670;28;20052;-55
2022/07/24 02:18:05;;;;;;;4.93;1.98;;;24.20;55.50;;;;;;5004518;28;20390;-54
2022/07/24 02:20:30;;;;;;;3.38;1.63;;;24.20;55.40;;;;;;5003317;28;20077;-54
2022/07/24 02:22:56;;;;;;;3.83;1.60;;;24.20;55.40;;;;;;5003839;28;20022;-54
2022/07/24 02:25:22;;;;;;;2.88;1.55;;;24.20;55.40;;;;;;5003813;28;20034;-56
2022/07/24 02:27:48;;;;;;;2.47;1.55;;;24.20;55.40;;;;;;5005670;28;20025;-55
2022/07/24 02:30:19;;;;;;;3.83;1.42;;;24.20;55.50;;;;;;5005308;28;20069;-54
2022/07/24 02:32:44;;;;;;;4.10;1.60;;;24.10;55.50;;;;;;5004560;28;20030;-55
2022/07/24 02:35:10;;;;;;;3.10;1.63;;;24.20;55.50;;;;;;5003872;28;20037;-55
2022/07/24 02:37:37;;;;;;;4.43;1.80;;;24.10;55.40;;;;;;5003902;28;20034;-55
2022/07/24 02:40:03;;;;;;;3.40;1.88;;;24.10;55.40;;;;;;5003258;28;20030;-54
2022/07/24 02:42:29;;;;;;;3.20;1.60;;;24.10;55.50;;;;;;5005008;28;20026;-54
2022/07/24 02:44:54;;;;;;;2.80;1.60;;;24.10;55.50;;;;;;5005951;28;20450;-55
2022/07/24 02:47:20;;;;;;;3.45;1.60;;;24.20;55.50;;;;;;5004916;28;20384;-56
2022/07/24 02:49:46;;;;;;;3.72;1.80;;;24.10;55.60;;;;;;5004114;28;20426;-55
2022/07/24 02:52:11;;;;;;;3.15;1.58;;;24.10;55.60;;;;;;5005407;28;20426;-55
2022/07/24 02:54:37;;;;;;;3.83;1.60;;;24.10;55.60;;;;;;5004713;28;20418;-55
2022/07/24 02:57:03;;;;;;;2.60;1.40;;;24.10;55.50;;;;;;5003083;28;20085;-55
2022/07/24 02:59:28;;;;;;;3.15;1.50;;;24.10;55.50;;;;;;5005634;28;20037;-55
2022/07/24 03:01:54;;;;;;;4.20;1.50;;;24.10;55.50;;;;;;5004233;28;20032;-55
2022/07/24 03:04:20;;;;;;;1.88;1.33;;;24.10;55.60;;;;;;5003549;28;20040;-55
2022/07/24 03:06:45;;;;;;;3.65;1.60;;;24.10;55.60;;;;;;5003972;28;20132;-55
2022/07/24 03:09:11;;;;;;;3.13;1.50;;;24.10;55.60;;;;;;5002769;28;20018;-54
2022/07/24 03:11:36;;;;;;;3.05;1.55;;;24.00;55.60;;;;;;5004174;28;20080;-54
2022/07/24 03:14:02;;;;;;;2.38;1.40;;;24.10;55.60;;;;;;5006083;28;20048;-55
2022/07/24 03:16:28;;;;;;;3.40;1.42;;;24.00;55.60;;;;;;5004573;28;20041;-54
2022/07/24 03:18:53;;;;;;;4.05;1.75;;;24.00;55.50;;;;;;5003972;28;20022;-55
2022/07/24 03:21:19;;;;;;;3.45;1.60;;;24.00;55.50;;;;;;5004177;28;20042;-55
2022/07/24 03:23:45;;;;;;;3.13;1.70;;;24.00;55.60;;;;;;5003927;28;20052;-54
2022/07/24 03:26:10;;;;;;;2.58;1.50;;;24.00;55.60;;;;;;5003186;28;20462;-54
2022/07/24 03:28:36;;;;;;;4.22;1.77;;;24.00;55.60;;;;;;5004799;28;20049;-55
2022/07/24 03:31:02;;;;;;;2.72;1.58;;;24.00;55.60;;;;;;5005513;28;20037;-54
2022/07/24 03:33:28;;;;;;;2.20;1.30;;;24.00;55.60;;;;;;5008296;28;20053;-55
2022/07/24 03:35:54;;;;;;;2.33;1.40;;;24.00;55.60;;;;;;5008973;28;20199;-55
2022/07/24 03:38:19;;;;;;;2.75;1.50;;;24.00;55.60;;;;;;5008275;28;20438;-53
2022/07/24 03:40:45;;;;;;;3.35;1.70;;;24.00;55.70;;;;;;5008312;28;20037;-55
2022/07/24 03:43:11;;;;;;;1.98;1.45;;;23.90;55.60;;;;;;5008238;28;20053;-55
2022/07/24 03:45:36;;;;;;;3.72;1.70;;;24.00;55.70;;;;;;5007723;28;20483;-55
2022/07/24 03:48:02;;;;;;;2.33;1.35;;;23.90;55.70;;;;;;5006503;28;20391;-56
2022/07/24 03:50:28;;;;;;;2.83;1.70;;;23.90;55.60;;;;;;5007738;28;20033;-55
2022/07/24 03:52:54;;;;;;;4.30;1.50;;;23.90;55.70;;;;;;5007330;28;20026;-54
2022/07/24 03:55:19;;;;;;;4.15;1.70;;;23.90;55.70;;;;;;5008120;28;20656;-56
2022/07/24 03:57:45;;;;;;;1.98;1.45;;;23.90;55.80;;;;;;5007041;28;20018;-54
2022/07/24 04:00:11;;;;;;;2.63;1.52;;;23.90;55.70;;;;;;5003137;28;20042;-54
2022/07/24 04:02:37;;;;;;;3.30;1.48;;;23.90;55.70;;;;;;5008444;28;20953;-55
2022/07/24 04:05:02;;;;;;;2.65;1.45;;;23.90;55.70;;;;;;5008079;28;20030;-54
2022/07/24 04:07:28;;;;;;;2.10;1.50;;;23.90;55.70;;;;;;5008148;28;20030;-55
2022/07/24 04:09:54;;;;;;;2.53;1.40;;;23.90;55.70;;;;;;5007224;28;20031;-54
2022/07/24 04:12:20;;;;;;;2.20;1.35;;;23.80;55.70;;;;;;5006412;28;20025;-54
2022/07/24 04:14:45;;;;;;;3.08;1.50;;;23.90;55.70;;;;;;5007281;28;20049;-54
2022/07/24 04:17:11;;;;;;;2.42;1.30;;;23.80;55.70;;;;;;5006406;28;20030;-54
2022/07/24 04:19:37;;;;;;;2.08;1.23;;;23.80;55.70;;;;;;5006944;28;20498;-54
2022/07/24 04:22:02;;;;;;;2.72;1.50;;;23.80;55.70;;;;;;5005495;28;20025;-54
2022/07/24 04:24:28;;;;;;;2.28;1.30;;;23.80;55.70;;;;;;5009899;28;20030;-54
2022/07/24 04:26:54;;;;;;;4.38;1.67;;;23.80;55.80;;;;;;5004333;28;20490;-54
2022/07/24 04:29:19;;;;;;;2.63;1.48;;;23.80;55.80;;;;;;5007259;28;20375;-54
2022/07/24 04:31:45;;;;;;;2.30;1.48;;;23.80;55.80;;;;;;5007570;28;20057;-54
2022/07/24 04:34:10;;;;;;;3.72;1.50;;;23.80;55.80;;;;;;5004805;28;20406;-55
2022/07/24 04:36:36;;;;;;;2.65;1.58;;;23.80;55.80;;;;;;5007545;28;20539;-55
2022/07/24 04:39:02;;;;;;;3.85;1.60;;;23.80;55.80;;;;;;5006542;28;20500;-55
2022/07/24 04:41:28;;;;;;;2.78;1.45;;;23.80;55.80;;;;;;5006856;28;20044;-55
2022/07/24 04:43:53;;;;;;;2.53;1.40;;;23.80;55.80;;;;;;5007561;28;20153;-54
2022/07/24 04:46:19;;;;;;;4.25;1.40;;;23.80;55.80;;;;;;5005570;28;20056;-55
2022/07/24 04:48:45;;;;;;;2.38;1.50;;;23.80;55.80;;;;;;5006143;28;20029;-54
2022/07/24 04:51:10;;;;;;;1.65;1.30;;;23.70;55.80;;;;;;5004315;28;20037;-55
2022/07/24 04:53:37;;;;;;;2.30;1.20;;;23.80;55.90;;;;;;5006324;28;20081;-55
2022/07/24 04:56:02;;;;;;;3.80;1.60;;;23.70;55.80;;;;;;5007275;28;20049;-55
2022/07/24 04:58:28;;;;;;;2.45;1.50;;;23.80;55.80;;;;;;5006086;28;20044;-55
2022/07/24 05:00:54;;;;;;;3.67;1.55;;;23.70;55.80;;;;;;5006221;28;20116;-54
2022/07/24 05:03:19;;;;;;;2.50;1.40;;;23.70;55.80;;;;;;5007368;28;20040;-55
2022/07/24 05:05:45;;;;;;;4.05;1.45;;;23.70;55.80;;;;;;5007920;28;20022;-55
2022/07/24 05:08:11;;;;;;;2.65;1.40;;;23.70;55.80;;;;;;5002969;28;20026;-55
2022/07/24 05:10:36;;;;;;;2.13;1.33;;;23.70;55.90;;;;;;5005689;28;20026;-54
2022/07/24 05:13:02;;;;;;;2.80;1.48;;;23.70;55.90;;;;;;5004651;28;20101;-55
2022/07/24 05:15:28;;;;;;;2.40;1.50;;;23.70;56.90;;;;;;5002815;28;20046;-54
2022/07/24 05:17:53;;;;;;;2.53;1.50;;;23.70;55.90;;;;;;5006827;28;20025;-55
2022/07/24 05:20:19;;;;;;;2.78;1.30;;;23.70;55.90;;;;;;5004750;28;20087;-55
2022/07/24 05:22:45;;;;;;;3.65;1.52;;;23.70;55.90;;;;;;5007913;28;20455;-55
2022/07/24 05:25:10;;;;;;;3.05;1.60;;;23.70;55.90;;;;;;5004809;28;20026;-54
2022/07/24 05:27:36;;;;;;;3.45;1.60;;;23.70;55.90;;;;;;5007186;28;20028;-54
2022/07/24 05:30:02;;;;;;;4.00;1.60;;;23.70;55.90;;;;;;5005068;28;20030;-55
2022/07/24 05:32:28;;;;;;;1.70;1.40;;;23.70;55.90;;;;;;5006135;28;20522;-55
2022/07/24 05:34:53;;;;;;;2.65;1.40;;;23.60;55.90;;;;;;5006604;28;20038;-54
2022/07/24 05:37:19;;;;;;;4.28;1.45;;;23.70;55.90;;;;;;5005404;28;20040;-55
2022/07/24 05:39:45;;;;;;;3.58;1.52;;;23.70;55.90;;;;;;5007277;28;20053;-54
2022/07/24 05:42:10;;;;;;;3.17;1.30;;;23.60;55.90;;;;;;5004530;28;20032;-54
2022/07/24 05:44:37;;;;;;;2.10;1.40;;;23.60;55.90;;;;;;5006036;28;20026;-54
2022/07/24 05:47:03;;;;;;;1.48;1.38;;;23.60;55.90;;;;;;5004323;28;20033;-55
2022/07/24 05:49:28;;;;;;;2.88;1.40;;;23.60;55.90;;;;;;5005354;28;20037;-55
2022/07/24 05:51:54;;;;;;;2.63;1.52;;;23.60;55.90;;;;;;5006251;28;20034;-55
2022/07/24 05:54:20;;;;;;;1.83;1.27;;;23.60;55.90;;;;;;5005503;28;20045;-54
2022/07/24 05:56:45;;;;;;;2.35;1.30;;;23.60;55.90;;;;;;5005502;28;20045;-55
2022/07/24 05:59:11;;;;;;;2.28;1.10;;;23.60;56.00;;;;;;5005333;28;20026;-54
2022/07/24 06:01:37;;;;;;;2.85;1.38;;;23.60;56.00;;;;;;5004910;28;20084;-55
2022/07/24 06:04:02;;;;;;;2.70;1.40;;;23.60;56.00;;;;;;5005829;28;20092;-55
2022/07/24 06:06:28;;;;;;;3.10;1.63;;;23.60;56.00;;;;;;5004419;28;20040;-55
2022/07/24 06:08:54;;;;;;;2.75;1.55;;;23.60;56.00;;;;;;5005424;28;20036;-55
2022/07/24 06:11:20;;;;;;;2.55;1.55;;;23.60;56.00;;;;;;5005695;28;20057;-54
2022/07/24 06:13:45;;;;;;;2.60;1.48;;;23.60;56.10;;;;;;5004030;28;20565;-54
2022/07/24 06:16:11;;;;;;;2.30;1.30;;;23.60;56.00;;;;;;5004164;28;20124;-54
2022/07/24 06:18:37;;;;;;;3.20;1.40;;;23.60;56.10;;;;;;5003656;28;20479;-55
2022/07/24 06:21:03;;;;;;;2.42;1.48;;;23.60;56.00;;;;;;5001279;28;20050;-55
2022/07/24 06:23:28;;;;;;;3.28;1.48;;;23.60;56.00;;;;;;5004514;28;20025;-55
2022/07/24 06:25:54;;;;;;;2.53;1.15;;;23.60;56.10;;;;;;5005081;28;20057;-54
2022/07/24 06:28:20;;;;;;;2.22;1.40;;;23.60;56.00;;;;;;5003504;28;20076;-54
2022/07/24 06:30:45;;;;;;;1.80;1.35;;;23.60;56.00;;;;;;5001715;28;20092;-55
2022/07/24 06:33:11;;;;;;;2.70;1.35;;;23.60;56.10;;;;;;5001465;28;20053;-53
2022/07/24 06:35:38;;;;;;;1.92;1.30;;;23.60;56.10;;;;;;5002260;28;20658;-54
2022/07/24 06:38:04;;;;;;;2.38;1.17;;;23.50;56.00;;;;;;4983199;28;20026;-55
2022/07/24 06:40:30;;;;;;;3.10;1.38;;;23.50;56.00;;;;;;4986352;28;20057;-55
2022/07/24 06:42:57;;;;;;;2.42;1.50;;;23.50;56.00;;;;;;5004621;28;20033;-54
2022/07/24 06:45:23;;;;;;;2.55;1.30;;;23.50;56.00;;;;;;5004396;28;20032;-55
2022/07/24 06:47:49;;;;;;;1.95;1.30;;;23.50;56.00;;;;;;5003743;28;20033;-53
2022/07/24 06:50:14;;;;;;;2.53;1.50;;;23.50;56.10;;;;;;5001515;28;20018;-55
2022/07/24 06:52:42;;;;;;;2.08;1.40;;;23.50;56.10;;;;;;5002583;28;20041;-55
2022/07/24 06:55:08;;;;;;;2.38;1.50;;;23.50;56.10;;;;;;5006148;28;20080;-54
2022/07/24 06:57:34;;;;;;;3.10;1.30;;;23.50;56.10;;;;;;5004227;28;20048;-55
2022/07/24 06:59:59;;;;;;;3.17;1.40;;;23.50;56.10;;;;;;5007504;28;20487;-54
2022/07/24 07:02:25;;;;;;;1.88;1.27;;;23.50;56.20;;;;;;5005239;28;20033;-54
2022/07/24 07:04:51;;;;;;;1.58;1.30;;;23.50;56.10;;;;;;5002873;28;20030;-53
2022/07/24 07:07:17;;;;;;;1.85;1.15;;;23.50;56.20;;;;;;5009124;28;20030;-55
2022/07/24 07:09:43;;;;;;;2.25;1.38;;;23.50;56.10;;;;;;5008395;28;20025;-53
2022/07/24 07:12:08;;;;;;;2.00;1.45;;;23.50;56.20;;;;;;5007768;28;20030;-54
2022/07/24 07:14:34;;;;;;;1.38;1.20;;;23.50;56.20;;;;;;5007949;28;20030;-55
2022/07/24 07:17:00;;;;;;;1.63;1.30;;;23.50;56.30;;;;;;5009131;28;20029;-54
2022/07/24 07:19:26;;;;;;;3.53;1.38;;;23.50;56.30;;;;;;5008029;28;20082;-55
2022/07/24 07:21:51;;;;;;;1.55;1.10;;;23.50;56.30;;;;;;5009039;28;20068;-53
2022/07/24 07:24:17;;;;;;;1.67;1.35;;;23.50;56.30;;;;;;5009091;28;20100;-55
2022/07/24 07:26:43;;;;;;;2.17;1.35;;;23.50;56.30;;;;;;5007994;28;20022;-54
2022/07/24 07:29:08;;;;;;;2.20;1.25;;;23.50;56.20;;;;;;5006108;28;20029;-54
2022/07/24 07:31:34;;;;;;;1.83;1.40;;;23.50;56.30;;;;;;5008990;28;20030;-54
2022/07/24 07:34:00;;;;;;;2.35;1.30;;;23.50;56.20;;;;;;5001088;28;20042;-54
2022/07/24 07:36:25;;;;;;;2.55;1.63;;;23.50;56.30;;;;;;5001418;28;20117;-54
2022/07/24 07:38:51;;;;;;;4.13;2.20;;;23.50;56.20;;;;;;5007669;28;20025;-53
2022/07/24 07:41:19;;;;;;;6.53;2.70;;;23.50;56.00;;;;;;5005106;28;20027;-53
2022/07/24 07:43:47;;;;;;;7.60;3.03;;;23.50;56.30;;;;;;5007943;28;20030;-53
2022/07/24 07:46:14;;;;;;;8.20;3.08;;;23.40;56.30;;;;;;5006266;28;20391;-54
2022/07/24 07:48:40;;;;;;;7.38;3.00;;;23.40;56.20;;;;;;5006084;28;20696;-54
2022/07/24 07:51:05;;;;;;;6.95;3.50;;;23.40;56.50;;;;;;5007032;28;20022;-53
2022/07/24 07:53:31;;;;;;;7.20;3.10;;;23.40;56.50;;;;;;5006395;28;20080;-53
2022/07/24 07:55:57;;;;;;;7.57;3.53;;;23.40;56.40;;;;;;5004716;28;20042;-53
2022/07/24 07:58:22;;;;;;;7.25;3.25;;;23.40;56.40;;;;;;5006652;28;20030;-52
2022/07/24 08:00:48;;;;;;;7.97;3.30;;;23.40;56.70;;;;;;5007259;28;20030;-54
2022/07/24 08:03:14;;;;;;;9.48;3.47;;;23.40;56.50;;;;;;5007109;28;20022;-53
2022/07/24 08:05:40;;;;;;;7.38;3.25;;;23.40;56.40;;;;;;5006601;28;20033;-54
2022/07/24 08:08:06;;;;;;;7.85;2.75;;;23.40;56.30;;;;;;5007174;28;20083;-54
2022/07/24 08:10:32;;;;;;;5.78;2.58;;;23.40;56.30;;;;;;5007480;28;20040;-52
2022/07/24 08:12:57;;;;;;;5.05;2.42;;;23.40;56.20;;;;;;5006197;28;20026;-54
2022/07/24 08:15:23;;;;;;;5.90;2.33;;;23.40;56.20;;;;;;5007262;28;20060;-52
2022/07/24 08:17:55;;;;;;;4.32;1.90;;;23.40;56.30;;;;;;5006591;28;20018;-54
2022/07/24 08:20:21;;;;;;;4.88;2.08;;;23.40;56.30;;;;;;5006102;28;20082;-53
2022/07/24 08:22:47;;;;;;;3.60;2.00;;;23.40;56.60;;;;;;5007604;28;20041;-54
2022/07/24 08:25:13;;;;;;;4.47;2.05;;;23.50;56.70;;;;;;5007000;28;20026;-53
2022/07/24 08:27:38;;;;;;;3.50;1.70;;;23.50;57.20;;;;;;5004650;28;20034;-57
2022/07/24 08:30:08;;;;;;;7.60;2.08;;;23.50;56.90;;;;;;5006205;28;20100;-54
2022/07/24 08:32:34;;;;;;;5.15;1.90;;;23.50;56.50;;;;;;5006255;28;20034;-55
2022/07/24 08:34:59;;;;;;;3.55;1.70;;;23.50;56.40;;;;;;5007773;28;20413;-55
2022/07/24 08:37:25;;;;;;;4.32;1.70;;;23.50;56.10;;;;;;5007473;28;20041;-55
2022/07/24 08:39:50;;;;;;;2.13;1.33;;;23.50;56.20;;;;;;5005978;28;20651;-55
2022/07/24 08:42:16;;;;;;;3.40;1.40;;;23.50;56.10;;;;;;5000444;28;20037;-54
2022/07/24 08:44:42;;;;;;;5.05;1.48;;;23.60;56.20;;;;;;5022413;28;20026;-55
2022/07/24 08:47:08;;;;;;;3.10;1.40;;;23.60;56.20;;;;;;5004304;28;20538;-55
2022/07/24 08:49:35;;;;;;;5.20;1.60;;;23.60;56.20;;;;;;5006132;28;20038;-55
2022/07/24 08:52:01;;;;;;;6.25;1.73;;;23.60;56.80;;;;;;5005330;28;20026;-54
2022/07/24 08:54:27;;;;;;;3.28;1.50;;;23.60;56.80;;;;;;5005326;28;20034;-55
2022/07/24 08:56:53;;;;;;;4.50;1.40;;;23.60;56.60;;;;;;5004914;28;20384;-55
2022/07/24 08:59:19;;;;;;;3.50;1.60;;;23.60;56.60;;;;;;5004488;28;20034;-55
2022/07/24 09:01:46;;;;;;;6.45;2.00;;;23.60;56.60;;;;;;5005528;28;20029;-54
2022/07/24 09:04:34;;;;;;;11.23;2.10;;;23.70;56.90;;;;;;5007745;28;20030;-55
2022/07/24 09:07:01;;;;;;;7.63;1.77;;;23.70;56.70;;;;;;5005834;28;20033;-54
2022/07/24 09:09:27;;;;;;;9.50;2.00;;;23.80;56.80;;;;;;5006927;28;20022;-55
2022/07/24 09:12:08;;;;;;;6.50;2.15;;;23.80;56.70;;;;;;5006128;28;20133;-54
2022/07/24 09:14:35;;;;;;;6.72;2.15;;;23.80;56.70;;;;;;5005737;28;20036;-55
2022/07/24 09:17:05;;;;;;;6.78;1.83;;;23.90;56.70;;;;;;5005900;28;20025;-55
2022/07/24 09:19:31;;;;;;;8.35;2.05;;;23.90;56.60;;;;;;5009167;28;20042;-55
2022/07/24 09:21:57;;;;;;;3.85;1.60;;;23.90;56.50;;;;;;5017876;28;20095;-55
2022/07/24 09:24:22;;;;;;;7.03;2.03;;;23.90;56.60;;;;;;5022406;28;20578;-54
2022/07/24 09:26:50;;;;;;;5.25;1.73;;;24.00;56.50;;;;;;5006954;28;20479;-55
2022/07/24 09:29:16;;;;;;;9.65;2.22;;;24.00;56.50;;;;;;5005337;28;20113;-54
2022/07/24 09:31:58;;;;;;;8.57;2.00;;;24.00;56.50;;;;;;5007040;28;20121;-55
2022/07/24 09:34:25;;;;;;;6.25;1.83;;;24.00;56.50;;;;;;5003083;28;20045;-55
2022/07/24 09:37:04;;;;;;;7.80;2.20;;;24.00;56.40;;;;;;5007070;28;20036;-54
2022/07/24 09:39:32;;;;;;;6.40;2.10;;;24.00;56.30;;;;;;5006718;28;20026;-54
2022/07/24 09:41:57;;;;;;;5.60;2.13;;;24.10;56.40;;;;;;5007905;28;20018;-54
2022/07/24 09:44:24;;;;;;;6.53;2.22;;;24.10;56.30;;;;;;5007282;28;20034;-54
2022/07/24 09:46:57;;;;;;;7.90;2.00;;;24.10;56.00;;;;;;5006373;28;20057;-54
2022/07/24 09:49:23;;;;;;;7.60;2.13;;;24.10;56.10;;;;;;5005639;28;20022;-55
2022/07/24 09:52:05;;;;;;;5.68;1.90;;;24.10;56.20;;;;;;5039099;28;20443;-55
2022/07/24 09:54:31;;;;;;;;;;;24.10;56.30;;;;;;5044621;28;20033;-54
2022/07/24 09:57:17;;;;;;;7.60;2.30;;;24.20;56.10;;;;;;5042444;28;19908;-55
2022/07/24 09:59:46;;;;;;;4.97;1.90;;;24.20;56.10;;;;;;5039749;28;20061;-55
2022/07/24 10:02:13;;;;;;;5.07;1.80;;;24.20;56.00;;;;;;5040900;28;20025;-55
2022/07/24 10:04:39;;;;;;;5.22;1.80;;;24.20;55.80;;;;;;5042632;28;20036;-54
2022/07/24 10:07:05;;;;;;;4.43;1.58;;;24.30;55.80;;;;;;5041864;28;20482;-55
2022/07/24 10:09:34;;;;;;;6.38;1.90;;;24.20;55.50;;;;;;5045451;28;20028;-55
2022/07/24 10:12:00;;;;;;;4.88;1.77;;;24.30;55.50;;;;;;5041729;28;20033;-55
2022/07/24 10:14:26;;;;;;;5.85;1.75;;;24.30;55.40;;;;;;5042742;28;20033;-55
2022/07/24 10:17:00;;;;;;;4.40;1.60;;;24.30;55.30;;;;;;5041419;28;20056;-55
2022/07/24 10:19:27;;;;;;;2.83;1.50;;;24.30;55.20;;;;;;5043000;28;20047;-55
2022/07/24 10:21:54;;;;;;;4.65;1.35;;;24.30;55.20;;;;;;5037819;28;20033;-55
2022/07/24 10:25:05;;;;;;;3.35;1.38;;;24.40;55.00;;;;;;5039416;28;20034;-54
2022/07/24 10:27:37;;;;;;;4.78;1.50;;;24.40;54.90;;;;;;4996709;28;20026;-55
2022/07/24 10:30:08;;;;;;;2.92;1.58;;;24.40;54.80;;;;;;5000230;28;20518;-55
2022/07/24 10:32:34;;;;;;;4.07;1.60;;;24.40;54.60;;;;;;4985086;28;20529;-55
2022/07/24 10:35:19;;;;;;;2.92;1.33;;;24.50;54.50;;;;;;4983628;28;20042;-55
2022/07/24 10:37:53;;;;;;;;;;;24.50;54.40;;;;;;4999214;28;20131;-54
2022/07/24 10:40:36;;;;;;;3.50;1.42;;;24.60;54.20;;;;;;4999057;28;20366;-55
2022/07/24 10:43:08;;;;;;;4.03;1.40;;;24.60;54.10;;;;;;4985312;28;20152;-55
2022/07/24 10:46:03;;;;;;;4.15;1.50;;;24.50;54.30;;;;;;4999951;28;20061;-55
2022/07/24 10:48:35;;;;;;;2.83;1.30;;;24.60;55.20;;;;;;4985052;28;20065;-55
2022/07/24 10:51:07;;;;;;;5.53;1.50;;;24.60;54.10;;;;;;4992656;28;20061;-55
2022/07/24 10:53:39;;;;;;;2.83;1.13;;;24.60;53.90;;;;;;5000968;28;20057;-55
2022/07/24 10:56:33;;;;;;;3.75;1.33;;;24.70;53.70;;;;;;4998627;28;20048;-55
2022/07/24 10:59:11;;;;;;;4.43;1.50;;;24.70;53.60;;;;;;5000918;28;20148;-55
2022/07/24 11:01:44;;;;;;;4.20;1.50;;;24.70;53.70;;;;;;5019902;28;20045;-55
2022/07/24 11:04:18;;;;;;;4.10;1.60;;;24.70;53.30;;;;;;5028536;28;20402;-55
2022/07/24 11:06:54;;;;;;;4.50;1.80;;;24.70;53.10;;;;;;5026148;28;20099;-55
2022/07/24 11:09:28;;;;;;;2.33;1.50;;;24.80;53.10;;;;;;5028758;28;20021;-55
2022/07/24 11:11:53;;;;;;;2.60;1.50;;;24.80;52.80;;;;;;5029603;28;20045;-55
2022/07/24 11:14:46;;;;;;;3.17;1.40;;;24.90;52.80;;;;;;5028269;28;20026;-55
2022/07/24 11:17:43;;;;;;;3.05;1.60;;;25.00;53.00;;;;;;5053218;28;20120;-55
2022/07/24 11:20:13;;;;;;;3.03;1.40;;;25.00;53.00;;;;;;5027837;28;20036;-55
2022/07/24 11:22:42;;;;;;;5.15;1.90;;;25.10;52.70;;;;;;5024735;28;20037;-55
2022/07/24 11:25:10;;;;;;;3.13;1.70;;;25.20;52.30;;;;;;5025952;28;20431;-55
2022/07/24 11:27:43;;;;;;;4.72;1.90;;;25.20;51.40;;;;;;5026188;28;20041;-54
2022/07/24 11:30:10;;;;;;;3.80;1.80;;;25.30;51.10;;;;;;5022228;28;20052;-54
2022/07/24 11:32:37;;;;;;;4.03;1.73;;;25.20;51.00;;;;;;5027204;28;20068;-55
2022/07/24 11:35:04;;;;;;;3.08;1.63;;;25.30;50.20;;;;;;5024533;28;20079;-55
2022/07/24 11:37:30;;;;;;;8.05;1.83;;;25.40;50.00;;;;;;5025071;28;20053;-55
2022/07/24 11:39:55;;;;;;;5.32;1.90;;;25.30;50.20;;;;;;5023905;28;20060;-55
2022/07/24 11:42:21;;;;;;;4.38;1.90;;;25.40;50.20;;;;;;5027570;28;20033;-54
2022/07/24 11:44:50;;;;;;;3.63;2.10;;;25.40;49.90;;;;;;5027470;28;20029;-55
2022/07/24 11:47:16;;;;;;;5.93;2.75;;;25.40;49.30;;;;;;5025405;28;20790;-55
2022/07/24 11:49:56;;;;;;;8.43;3.80;;;25.50;49.50;;;;;;5023857;28;20037;-56
2022/07/24 11:52:26;;;;;;;13.55;7.30;;;25.50;49.50;;;;;;5026258;28;20482;-55
2022/07/24 11:54:54;;;;;;;12.77;8.23;;;25.50;49.30;;;;;;5023973;28;20462;-55
2022/07/24 11:57:21;;;;;;;14.20;9.27;;;25.50;48.90;;;;;;5026309;28;20490;-55
2022/07/24 11:59:48;;;;;;;40.78;29.83;;;25.50;48.90;;;;;;5024258;28;20041;-55
2022/07/24 12:02:14;;;;;;;18.73;12.25;;;25.60;48.90;;;;;;5025607;28;20025;-55
2022/07/24 12:04:40;;;;;;;13.30;8.48;;;25.60;48.80;;;;;;5026720;28;20028;-55
2022/07/24 12:07:13;;;;;;;11.27;6.95;;;25.60;48.70;;;;;;5025830;28;20037;-55
2022/07/24 12:09:59;;;;;;;10.07;5.30;;;25.70;48.70;;;;;;5023256;28;20076;-55
2022/07/24 12:12:28;;;;;;;8.55;4.40;;;25.80;48.70;;;;;;5020278;28;20040;-55
2022/07/24 12:15:04;;;;;;;6.45;3.20;;;25.80;48.40;;;;;;5023202;28;20526;-55
2022/07/24 12:17:31;;;;;;;4.93;2.70;;;25.90;48.10;;;;;;5025734;28;20025;-55
2022/07/24 12:19:58;;;;;;;7.05;2.63;;;25.80;48.10;;;;;;5026582;28;20420;-55
2022/07/24 12:22:24;;;;;;;6.72;2.50;;;25.90;48.30;;;;;;5026135;28;20021;-55
2022/07/24 12:24:50;;;;;;;4.85;2.33;;;26.00;48.00;;;;;;5023413;28;20025;-55
2022/07/24 12:27:37;;;;;;;5.40;2.30;;;26.00;48.00;;;;;;5021842;28;20027;-54
2022/07/24 12:30:16;;;;;;;4.45;2.13;;;26.10;47.80;;;;;;5027103;28;20128;-55
2022/07/24 12:32:57;;;;;;;5.25;2.20;;;26.10;47.80;;;;;;5026018;28;20025;-55
2022/07/24 12:35:24;;;;;;;3.17;1.70;;;26.10;47.90;;;;;;5023516;28;20431;-55
2022/07/24 12:37:51;;;;;;;4.38;2.00;;;26.10;48.00;;;;;;5027874;28;20509;-55
2022/07/24 12:40:34;;;;;;;3.63;1.90;;;26.10;47.30;;;;;;5024040;28;20029;-55
2022/07/24 12:43:04;;;;;;;4.43;2.22;;;26.20;47.30;;;;;;5024981;28;20045;-55
2022/07/24 12:45:30;;;;;;;3.50;1.80;;;26.30;47.40;;;;;;5030491;28;20666;-56
2022/07/24 12:48:05;;;;;;;4.90;2.00;;;26.30;47.30;;;;;;5032586;28;20101;-55
2022/07/24 12:50:31;;;;;;;5.47;2.10;;;26.30;47.10;;;;;;5028831;28;20049;-55